createdAt,value
2023-02-08T00:01:31.605Z,89.03
2023-02-08T00:03:57.980Z,89.61
2023-02-08T00:06:24.282Z,89.08
2023-02-08T00:08:50.549Z,88.74
2023-02-08T00:11:16.936Z,88.90
2023-02-08T00:13:43.301Z,88.67
2023-02-08T00:16:10.379Z,88.83
2023-02-08T00:18:37.339Z,88.91
2023-02-08T00:21:12.353Z,88.45
2023-02-08T00:23:39.012Z,87.78
2023-02-08T00:26:05.791Z,87.87
2023-02-08T00:28:32.280Z,87.68
2023-02-08T00:30:58.819Z,88.08
2023-02-08T00:33:25.240Z,88.32
2023-02-08T00:35:57.842Z,88.40
2023-02-08T00:38:24.090Z,88.08
2023-02-08T00:40:50.373Z,86.74
2023-02-08T00:43:16.672Z,86.55
2023-02-08T00:45:42.973Z,86.23
2023-02-08T00:48:09.253Z,86.14
2023-02-08T00:50:35.710Z,85.82
2023-02-08T00:53:02.028Z,86.13
2023-02-08T00:55:28.321Z,86.62
2023-02-08T00:57:54.702Z,87.40
2023-02-08T01:00:21.161Z,87.52
2023-02-08T01:02:47.656Z,88.06
2023-02-08T01:05:13.942Z,88.24
2023-02-08T01:07:40.505Z,88.82
2023-02-08T01:10:09.233Z,88.04
2023-02-08T01:12:35.574Z,87.54
2023-02-08T01:15:01.867Z,87.40
2023-02-08T01:17:28.196Z,87.75
2023-02-08T01:19:54.466Z,87.63
2023-02-08T01:22:20.741Z,87.87
2023-02-08T01:24:47.027Z,88.08
2023-02-08T01:27:13.282Z,87.95
2023-02-08T01:29:39.572Z,88.28
2023-02-08T01:32:05.956Z,88.18
2023-02-08T01:34:32.295Z,88.00
2023-02-08T01:36:58.594Z,88.15
2023-02-08T01:39:24.886Z,88.60
2023-02-08T01:41:51.232Z,88.41
2023-02-08T01:44:17.613Z,87.86
2023-02-08T01:46:46.322Z,87.75
2023-02-08T01:49:24.721Z,88.21
2023-02-08T01:52:03.136Z,88.81
2023-02-08T01:54:38.037Z,88.65
2023-02-08T01:57:04.828Z,87.00
2023-02-08T01:59:41.023Z,86.72
2023-02-08T02:02:12.578Z,87.36
2023-02-08T02:04:39.280Z,87.29
2023-02-08T02:07:06.255Z,87.23
2023-02-08T02:09:39.830Z,87.22
2023-02-08T02:12:08.415Z,87.82
2023-02-08T02:14:35.899Z,88.42
2023-02-08T02:17:02.569Z,88.79
2023-02-08T02:19:40.442Z,89.16
2023-02-08T02:22:26.976Z,89.49
2023-02-08T02:25:18.517Z,89.90
2023-02-08T02:27:57.281Z,90.70
2023-02-08T02:30:55.864Z,90.32
2023-02-08T02:33:25.298Z,90.94
2023-02-08T02:36:18.902Z,90.54
2023-02-08T02:38:53.937Z,90.79
2023-02-08T02:41:56.661Z,91.14
2023-02-08T02:44:47.617Z,91.24
2023-02-08T02:47:38.999Z,91.54
2023-02-08T02:50:30.034Z,91.83
2023-02-08T02:53:07.393Z,92.13
2023-02-08T02:55:40.323Z,92.56
2023-02-08T02:58:11.021Z,92.37
2023-02-08T03:00:37.665Z,91.92
2023-02-08T03:03:04.137Z,91.85
2023-02-08T03:05:30.560Z,91.42
2023-02-08T03:08:11.583Z,90.54
2023-02-08T03:10:55.639Z,90.45
2023-02-08T03:13:27.914Z,90.01
2023-02-08T03:16:18.223Z,90.33
2023-02-08T03:19:09.636Z,90.40
2023-02-08T03:21:58.380Z,90.72
2023-02-08T03:24:45.499Z,90.78
2023-02-08T03:27:28.790Z,91.33
2023-02-08T03:30:01.189Z,90.87
2023-02-08T03:32:40.746Z,90.51
2023-02-08T03:35:31.572Z,89.77
2023-02-08T03:38:03.568Z,89.78
2023-02-08T03:40:36.978Z,89.63
2023-02-08T03:43:11.378Z,89.44
2023-02-08T03:45:44.516Z,90.22
2023-02-08T03:48:14.266Z,90.49
2023-02-08T03:50:43.826Z,90.60
2023-02-08T03:53:10.992Z,91.00
2023-02-08T03:55:38.908Z,91.24
2023-02-08T03:58:12.818Z,91.31
2023-02-08T04:00:43.461Z,91.46
2023-02-08T04:03:19.289Z,91.53
2023-02-08T04:05:46.579Z,91.77
2023-02-08T04:08:12.866Z,92.08
2023-02-08T04:10:39.743Z,92.22
2023-02-08T04:13:06.205Z,92.17
2023-02-08T04:15:32.722Z,92.34
2023-02-08T04:17:59.074Z,92.54
2023-02-08T04:20:25.425Z,93.01
2023-02-08T04:22:51.702Z,92.95
2023-02-08T04:25:18.681Z,93.01
2023-02-08T04:27:45.076Z,93.69
2023-02-08T04:30:12.262Z,93.93
2023-02-08T04:32:38.697Z,93.37
2023-02-08T04:35:05.542Z,93.14
2023-02-08T04:37:32.757Z,92.67
2023-02-08T04:39:59.069Z,92.65
2023-02-08T04:42:25.432Z,92.78
2023-02-08T04:44:51.976Z,92.63
2023-02-08T04:47:18.377Z,92.63
2023-02-08T04:49:44.761Z,92.46
2023-02-08T04:52:11.095Z,92.38
2023-02-08T04:54:39.943Z,92.98
2023-02-08T04:57:07.103Z,92.89
2023-02-08T04:59:33.398Z,92.83
2023-02-08T05:02:00.327Z,92.97
2023-02-08T05:04:27.248Z,92.86
2023-02-08T05:06:53.510Z,93.11
2023-02-08T05:09:19.824Z,93.25
2023-02-08T05:11:46.133Z,93.31
2023-02-08T05:14:12.407Z,93.57
2023-02-08T05:16:38.690Z,93.87
2023-02-08T05:19:05.119Z,93.97
2023-02-08T05:21:31.434Z,94.29
2023-02-08T05:23:57.781Z,94.85
2023-02-08T05:26:24.132Z,94.33
2023-02-08T05:28:50.521Z,94.52
2023-02-08T05:31:23.037Z,94.54
2023-02-08T05:33:50.484Z,94.87
2023-02-08T05:36:17.549Z,94.87
2023-02-08T05:38:43.894Z,95.50
2023-02-08T05:41:10.217Z,95.33
2023-02-08T05:43:37.077Z,95.64
2023-02-08T05:46:03.637Z,95.86
2023-02-08T05:48:31.173Z,95.76
2023-02-08T05:50:57.520Z,96.38
2023-02-08T05:53:23.833Z,96.45
2023-02-08T05:55:50.196Z,96.44
2023-02-08T05:58:17.288Z,96.17
2023-02-08T06:00:44.137Z,95.91
2023-02-08T06:03:11.212Z,95.90
2023-02-08T06:05:39.275Z,96.19
2023-02-08T06:08:05.904Z,96.30
2023-02-08T06:10:32.312Z,96.39
2023-02-08T06:12:58.677Z,96.56
2023-02-08T06:15:24.993Z,96.49
2023-02-08T06:17:51.341Z,96.72
2023-02-08T06:20:17.730Z,96.58
2023-02-08T06:22:44.092Z,96.46
2023-02-08T06:25:10.424Z,96.80
2023-02-08T06:27:36.758Z,96.49
2023-02-08T06:30:03.479Z,96.53
2023-02-08T06:32:29.871Z,96.10
2023-02-08T06:34:57.323Z,96.35
2023-02-08T06:37:23.628Z,96.44
2023-02-08T06:39:49.991Z,95.62
2023-02-08T06:42:16.286Z,96.01
2023-02-08T06:44:54.213Z,95.90
2023-02-08T06:47:25.581Z,95.31
2023-02-08T06:49:52.513Z,95.41
2023-02-08T06:52:19.651Z,95.60
2023-02-08T06:54:46.002Z,95.69
2023-02-08T06:57:15.363Z,96.01
2023-02-08T06:59:42.204Z,95.90
2023-02-08T07:02:17.333Z,96.32
2023-02-08T07:04:45.264Z,96.24
2023-02-08T07:07:13.046Z,96.29
2023-02-08T07:09:39.599Z,96.61
2023-02-08T07:12:06.330Z,96.51
2023-02-08T07:14:38.303Z,96.62
2023-02-08T07:17:04.623Z,96.49
2023-02-08T07:19:31.262Z,96.65
2023-02-08T07:22:02.989Z,96.54
2023-02-08T07:24:29.296Z,96.69
2023-02-08T07:26:55.630Z,96.47
2023-02-08T07:29:21.940Z,96.51
2023-02-08T07:31:48.267Z,95.12
2023-02-08T07:34:16.868Z,94.66
2023-02-08T07:36:43.138Z,94.22
2023-02-08T07:39:09.394Z,93.76
2023-02-08T07:41:35.681Z,93.66
2023-02-08T07:44:01.964Z,93.00
2023-02-08T07:46:28.370Z,90.77
2023-02-08T07:48:54.668Z,87.74
2023-02-08T07:51:21.009Z,81.86
2023-02-08T07:53:47.414Z,80.21
2023-02-08T07:56:13.769Z,77.20
2023-02-08T07:58:40.708Z,74.05
2023-02-08T08:01:20.967Z,70.26
2023-02-08T08:03:48.632Z,69.43
2023-02-08T08:06:15.063Z,67.91
2023-02-08T08:08:41.351Z,68.15
2023-02-08T08:11:07.596Z,66.92
2023-02-08T08:13:33.864Z,65.33
2023-02-08T08:16:00.217Z,64.01
2023-02-08T08:18:26.508Z,62.76
2023-02-08T08:20:52.773Z,62.46
2023-02-08T08:23:19.836Z,61.17
2023-02-08T08:25:46.205Z,61.00
2023-02-08T08:28:12.539Z,60.82
2023-02-08T08:30:43.312Z,59.73
2023-02-08T08:33:10.089Z,59.82
2023-02-08T08:35:36.414Z,59.39
2023-02-08T08:38:02.711Z,58.82
2023-02-08T08:40:29.066Z,57.77
2023-02-08T08:42:56.902Z,57.96
2023-02-08T08:45:23.795Z,57.59
2023-02-08T08:47:50.089Z,56.42
2023-02-08T08:50:16.381Z,55.40
2023-02-08T08:52:42.994Z,54.93
2023-02-08T08:55:09.325Z,54.70
2023-02-08T08:57:35.692Z,53.90
2023-02-08T09:00:02.424Z,54.96
2023-02-08T09:02:28.744Z,55.25
2023-02-08T09:04:55.058Z,54.58
2023-02-08T09:07:21.402Z,54.70
2023-02-08T09:09:48.013Z,54.32
2023-02-08T09:12:15.791Z,54.13
2023-02-08T09:14:44.669Z,53.94
2023-02-08T09:17:11.940Z,52.65
2023-02-08T09:19:38.465Z,52.47
2023-02-08T09:22:08.134Z,53.47
2023-02-08T09:24:35.242Z,52.37
2023-02-08T09:27:01.615Z,51.85
2023-02-08T09:29:29.962Z,51.97
2023-02-08T09:31:56.439Z,50.16
2023-02-08T09:34:23.070Z,51.29
2023-02-08T09:36:49.399Z,49.43
2023-02-08T09:39:19.298Z,50.42
2023-02-08T09:42:13.173Z,49.37
2023-02-08T09:45:09.564Z,49.95
2023-02-08T09:47:57.614Z,50.05
2023-02-08T09:50:35.302Z,50.02
2023-02-08T09:53:17.506Z,48.89
2023-02-08T09:55:47.985Z,49.31
2023-02-08T09:58:23.634Z,48.77
2023-02-08T10:00:51.938Z,48.74
2023-02-08T10:03:33.958Z,48.32
2023-02-08T10:06:01.536Z,48.70
2023-02-08T10:08:35.227Z,47.74
2023-02-08T10:11:46.697Z,47.93
2023-02-08T10:14:48.296Z,48.61
2023-02-08T10:17:52.581Z,48.39
2023-02-08T10:20:38.631Z,48.42
2023-02-08T10:23:23.644Z,46.95
2023-02-08T10:26:11.971Z,47.39
2023-02-08T10:28:57.669Z,47.39
2023-02-08T10:31:44.754Z,46.75
2023-02-08T10:34:22.961Z,47.25
2023-02-08T10:36:49.244Z,46.94
2023-02-08T10:39:26.959Z,46.98
2023-02-08T10:41:53.597Z,47.65
2023-02-08T10:44:27.896Z,46.31
2023-02-08T10:47:14.479Z,47.13
2023-02-08T10:49:50.544Z,47.49
2023-02-08T10:52:16.800Z,46.31
2023-02-08T10:54:43.202Z,46.36
2023-02-08T10:57:24.344Z,46.77
2023-02-08T10:59:58.535Z,46.80
2023-02-08T11:02:28.800Z,46.93
2023-02-08T11:05:03.412Z,46.18
2023-02-08T11:07:31.367Z,46.13
2023-02-08T11:10:12.902Z,44.82
2023-02-08T11:12:41.127Z,45.73
2023-02-08T11:15:26.006Z,45.93
2023-02-08T11:17:54.953Z,46.05
2023-02-08T11:20:39.756Z,45.24
2023-02-08T11:23:28.748Z,45.56
2023-02-08T11:26:15.347Z,45.49
2023-02-08T11:28:42.217Z,45.89
2023-02-08T11:31:18.590Z,45.11
2023-02-08T11:34:04.746Z,45.93
2023-02-08T11:36:33.779Z,45.29
2023-02-08T11:39:16.685Z,45.31
2023-02-08T11:41:45.687Z,45.63
2023-02-08T11:44:20.839Z,45.44
2023-02-08T11:46:48.586Z,44.95
2023-02-08T11:49:23.386Z,44.58
2023-02-08T11:51:49.906Z,44.57
2023-02-08T11:54:38.766Z,44.08
2023-02-08T11:57:14.613Z,45.04
2023-02-08T11:59:41.489Z,45.27
2023-02-08T12:02:26.423Z,43.77
2023-02-08T12:04:52.902Z,44.11
2023-02-08T12:07:37.887Z,43.70
2023-02-08T12:10:25.566Z,42.64
2023-02-08T12:13:01.085Z,43.57
2023-02-08T12:15:57.968Z,44.08
2023-02-08T12:18:39.161Z,44.21
2023-02-08T12:21:12.623Z,44.04
2023-02-08T12:23:47.405Z,43.13
2023-02-08T12:26:41.967Z,43.12
2023-02-08T12:29:46.892Z,42.93
2023-02-08T12:32:38.924Z,43.04
2023-02-08T12:36:03.067Z,42.30
2023-02-08T12:39:26.617Z,41.73
2023-02-08T12:41:58.757Z,42.36
2023-02-08T12:44:34.065Z,42.97
2023-02-08T12:47:10.672Z,42.79
2023-02-08T12:50:01.565Z,41.93
2023-02-08T12:52:37.583Z,42.16
2023-02-08T12:55:26.337Z,42.84
2023-02-08T12:57:57.495Z,42.23
2023-02-08T13:00:28.948Z,41.95
2023-02-08T13:03:06.926Z,42.56
2023-02-08T13:05:42.928Z,42.93
2023-02-08T13:08:30.364Z,42.71
2023-02-08T13:11:14.138Z,41.02
2023-02-08T13:13:58.587Z,41.46
2023-02-08T13:16:31.062Z,42.22
2023-02-08T13:19:05.710Z,42.19
2023-02-08T13:21:41.696Z,41.58
2023-02-08T13:24:18.849Z,40.82
2023-02-08T13:26:45.601Z,41.23
2023-02-08T13:29:18.534Z,41.03
2023-02-08T13:31:49.613Z,41.26
2023-02-08T13:34:29.533Z,40.40
2023-02-08T13:37:00.209Z,41.00
2023-02-08T13:39:34.413Z,40.41
2023-02-08T13:42:02.585Z,39.54
2023-02-08T13:44:35.978Z,40.42
2023-02-08T13:47:03.499Z,40.77
2023-02-08T13:49:49.275Z,39.07
2023-02-08T13:52:47.048Z,39.30
2023-02-08T13:55:30.466Z,39.67
2023-02-08T13:57:59.138Z,39.15
2023-02-08T14:00:25.544Z,39.08
2023-02-08T14:03:22.550Z,38.95
2023-02-08T14:05:57.749Z,39.06
2023-02-08T14:08:39.334Z,39.25
2023-02-08T14:11:15.043Z,39.29
2023-02-08T14:13:47.264Z,38.98
2023-02-08T14:16:32.655Z,38.66
2023-02-08T14:19:04.930Z,38.58
2023-02-08T14:21:42.955Z,37.76
2023-02-08T14:24:23.423Z,38.23
2023-02-08T14:26:51.435Z,38.57
2023-02-08T14:29:27.683Z,38.56
2023-02-08T14:31:54.504Z,38.11
2023-02-08T14:34:47.253Z,38.22
2023-02-08T14:37:21.420Z,38.72
2023-02-08T14:39:50.408Z,38.88
2023-02-08T14:42:55.876Z,38.89
2023-02-08T14:45:34.168Z,38.81
2023-02-08T14:48:16.135Z,39.82
2023-02-08T14:50:51.119Z,38.25
2023-02-08T14:53:49.559Z,37.73
2023-02-08T14:56:18.711Z,37.92
2023-02-08T14:58:52.187Z,38.30
2023-02-08T15:01:44.067Z,38.99
2023-02-08T15:04:10.662Z,39.66
2023-02-08T15:06:50.326Z,39.54
2023-02-08T15:09:21.754Z,39.68
2023-02-08T15:11:59.649Z,39.11
2023-02-08T15:14:26.873Z,39.86
2023-02-08T15:16:55.396Z,40.60
2023-02-08T15:19:26.918Z,39.42
2023-02-08T15:21:53.594Z,40.02
2023-02-08T15:24:23.136Z,40.20
2023-02-08T15:26:52.285Z,40.10
2023-02-08T15:29:39.141Z,40.52
2023-02-08T15:32:16.277Z,40.48
2023-02-08T15:34:44.319Z,40.72
2023-02-08T15:37:18.292Z,40.89
2023-02-08T15:39:48.978Z,40.90
2023-02-08T15:42:24.148Z,41.35
2023-02-08T15:44:50.630Z,41.70
2023-02-08T15:47:27.778Z,41.68
2023-02-08T15:49:56.053Z,41.37
2023-02-08T15:52:27.613Z,41.46
2023-02-08T15:54:54.593Z,41.87
2023-02-08T15:57:39.223Z,42.64
2023-02-08T16:00:14.044Z,43.25
2023-02-08T16:02:40.972Z,43.56
2023-02-08T16:05:25.601Z,43.68
2023-02-08T16:07:52.249Z,43.79
2023-02-08T16:10:29.292Z,43.98
2023-02-08T16:12:59.398Z,43.92
2023-02-08T16:15:39.426Z,44.40
2023-02-08T16:18:06.576Z,44.87
2023-02-08T16:20:35.302Z,45.31
2023-02-08T16:23:21.367Z,45.74
2023-02-08T16:25:50.593Z,46.07
2023-02-08T16:28:33.473Z,46.06
2023-02-08T16:31:02.799Z,46.50
2023-02-08T16:33:31.450Z,47.04
2023-02-08T16:36:01.884Z,47.22
2023-02-08T16:38:30.977Z,47.75
2023-02-08T16:41:11.776Z,47.96
2023-02-08T16:43:43.659Z,48.43
2023-02-08T16:46:21.256Z,48.42
2023-02-08T16:48:50.578Z,48.28
2023-02-08T16:51:21.906Z,48.94
2023-02-08T16:53:50.738Z,49.00
2023-02-08T16:56:17.318Z,49.26
2023-02-08T16:58:43.624Z,49.88
2023-02-08T17:01:12.771Z,49.83
2023-02-08T17:03:39.493Z,50.06
2023-02-08T17:06:06.405Z,50.22
2023-02-08T17:08:35.649Z,50.35
2023-02-08T17:11:01.990Z,51.55
2023-02-08T17:13:28.268Z,52.52
2023-02-08T17:15:54.796Z,52.97
2023-02-08T17:18:21.378Z,52.64
2023-02-08T17:20:47.753Z,51.94
2023-02-08T17:23:15.781Z,53.39
2023-02-08T17:25:42.951Z,53.54
2023-02-08T17:28:15.934Z,53.26
2023-02-08T17:30:43.295Z,52.75
2023-02-08T17:33:17.770Z,52.90
2023-02-08T17:35:46.549Z,53.54
2023-02-08T17:38:15.390Z,53.85
2023-02-08T17:40:42.564Z,54.16
2023-02-08T17:43:11.334Z,54.93
2023-02-08T17:45:39.440Z,54.71
2023-02-08T17:48:06.743Z,55.48
2023-02-08T17:50:33.232Z,55.75
2023-02-08T17:52:59.590Z,56.28
2023-02-08T17:55:26.012Z,57.25
2023-02-08T17:57:53.670Z,56.90
2023-02-08T18:00:22.131Z,57.58
2023-02-08T18:02:51.014Z,57.75
2023-02-08T18:05:22.513Z,58.69
2023-02-08T18:07:50.093Z,59.01
2023-02-08T18:10:16.475Z,60.39
2023-02-08T18:12:43.093Z,60.53
2023-02-08T18:15:12.215Z,58.84
2023-02-08T18:17:39.523Z,59.07
2023-02-08T18:20:06.748Z,58.65
2023-02-08T18:22:33.270Z,57.59
2023-02-08T18:24:59.602Z,57.46
2023-02-08T18:27:27.211Z,56.48
2023-02-08T18:29:54.309Z,56.51
2023-02-08T18:32:21.961Z,56.83
2023-02-08T18:34:49.489Z,57.29
2023-02-08T18:37:16.814Z,57.53
2023-02-08T18:39:43.204Z,57.20
2023-02-08T18:42:10.280Z,57.88
2023-02-08T18:44:38.471Z,59.28
2023-02-08T18:47:06.003Z,60.38
2023-02-08T18:49:32.522Z,61.47
2023-02-08T18:51:59.164Z,62.25
2023-02-08T18:54:25.463Z,62.98
2023-02-08T18:56:54.581Z,64.35
2023-02-08T18:59:21.275Z,64.84
2023-02-08T19:01:48.004Z,65.49
2023-02-08T19:04:14.316Z,65.16
2023-02-08T19:06:40.688Z,65.52
2023-02-08T19:09:07.689Z,65.89
2023-02-08T19:11:37.729Z,65.31
2023-02-08T19:14:10.434Z,65.33
2023-02-08T19:16:37.471Z,65.55
2023-02-08T19:19:06.331Z,65.67
2023-02-08T19:21:33.900Z,65.87
2023-02-08T19:24:01.372Z,66.31
2023-02-08T19:26:42.369Z,66.64
2023-02-08T19:29:13.411Z,64.67
2023-02-08T19:31:40.489Z,66.12
2023-02-08T19:34:07.548Z,66.65
2023-02-08T19:36:41.527Z,67.07
2023-02-08T19:39:08.212Z,67.14
2023-02-08T19:41:37.685Z,68.18
2023-02-08T19:44:05.929Z,69.40
2023-02-08T19:46:34.413Z,69.59
2023-02-08T19:49:01.652Z,69.26
2023-02-08T19:51:30.237Z,69.58
2023-02-08T19:53:58.257Z,70.17
2023-02-08T19:56:24.589Z,70.65
2023-02-08T19:58:50.880Z,71.01
2023-02-08T20:01:22.176Z,72.50
2023-02-08T20:03:49.977Z,73.02
2023-02-08T20:06:19.037Z,72.77
2023-02-08T20:08:46.102Z,72.81
2023-02-08T20:11:32.160Z,72.94
2023-02-08T20:14:00.041Z,73.35
2023-02-08T20:16:31.198Z,74.57
2023-02-08T20:18:58.535Z,75.14
2023-02-08T20:21:24.885Z,74.63
2023-02-08T20:23:51.316Z,74.45
2023-02-08T20:26:21.112Z,74.61
2023-02-08T20:28:51.326Z,75.35
2023-02-08T20:31:20.903Z,76.14
2023-02-08T20:33:47.822Z,77.06
2023-02-08T20:36:18.262Z,77.25
2023-02-08T20:38:44.633Z,77.60
2023-02-08T20:41:14.423Z,77.72
2023-02-08T20:43:42.366Z,78.18
2023-02-08T20:46:35.929Z,78.78
2023-02-08T20:49:04.186Z,78.53
2023-02-08T20:51:31.211Z,78.78
2023-02-08T20:53:59.125Z,78.16
2023-02-08T20:56:28.958Z,76.96
2023-02-08T20:58:55.347Z,76.34
2023-02-08T21:01:24.851Z,76.23
2023-02-08T21:03:55.806Z,74.99
2023-02-08T21:06:31.058Z,74.32
2023-02-08T21:08:59.666Z,73.67
2023-02-08T21:11:28.413Z,73.53
2023-02-08T21:13:55.750Z,73.64
2023-02-08T21:16:22.562Z,72.92
2023-02-08T21:18:49.228Z,72.31
2023-02-08T21:21:16.200Z,70.40
2023-02-08T21:23:44.147Z,69.33
2023-02-08T21:26:13.389Z,67.83
2023-02-08T21:28:39.968Z,67.11
2023-02-08T21:31:10.362Z,66.77
2023-02-08T21:33:36.694Z,66.73
2023-02-08T21:36:10.264Z,66.50
2023-02-08T21:38:36.630Z,66.71
2023-02-08T21:41:24.416Z,65.95
2023-02-08T21:43:53.973Z,66.88
2023-02-08T21:46:21.130Z,67.27
2023-02-08T21:49:06.771Z,67.32
2023-02-08T21:51:51.477Z,67.82
2023-02-08T21:54:29.599Z,67.32
2023-02-08T21:56:58.596Z,68.02
2023-02-08T21:59:24.886Z,67.19
2023-02-08T22:01:51.265Z,67.81
2023-02-08T22:04:17.680Z,67.74
2023-02-08T22:06:44.030Z,66.62
2023-02-08T22:09:10.342Z,66.65
2023-02-08T22:11:36.634Z,66.63
2023-02-08T22:14:03.008Z,66.09
2023-02-08T22:16:29.371Z,66.81
2023-02-08T22:18:55.677Z,67.26
2023-02-08T22:21:21.956Z,67.26
2023-02-08T22:23:48.298Z,67.24
2023-02-08T22:26:14.586Z,67.37
2023-02-08T22:28:40.879Z,67.13
2023-02-08T22:31:07.280Z,66.97
2023-02-08T22:33:33.791Z,67.93
2023-02-08T22:36:00.168Z,67.80
2023-02-08T22:38:26.516Z,68.45
2023-02-08T22:40:52.808Z,68.40
2023-02-08T22:43:19.099Z,69.08
2023-02-08T22:45:45.558Z,69.60
2023-02-08T22:48:11.860Z,68.99
2023-02-08T22:50:38.450Z,69.36
2023-02-08T22:53:04.742Z,69.79
2023-02-08T22:55:31.128Z,70.94
2023-02-08T22:57:57.463Z,71.34
2023-02-08T23:00:23.876Z,71.27
2023-02-08T23:02:50.240Z,72.01
2023-02-08T23:05:16.562Z,72.43
2023-02-08T23:07:42.958Z,72.72
2023-02-08T23:10:10.602Z,72.98
2023-02-08T23:12:36.894Z,71.82
2023-02-08T23:15:03.309Z,71.22
2023-02-08T23:17:29.573Z,70.50
2023-02-08T23:19:55.930Z,70.74
2023-02-08T23:22:22.248Z,70.34
2023-02-08T23:24:48.586Z,70.35
2023-02-08T23:27:14.976Z,69.96
2023-02-08T23:29:41.220Z,70.44
2023-02-08T23:32:07.687Z,70.57
2023-02-08T23:34:34.938Z,69.83
2023-02-08T23:37:01.234Z,69.50
2023-02-08T23:39:27.610Z,70.39
2023-02-08T23:41:55.955Z,70.78
2023-02-08T23:44:23.362Z,70.79
2023-02-08T23:46:49.641Z,70.85
2023-02-08T23:49:15.930Z,70.97
2023-02-08T23:51:42.271Z,71.30
2023-02-08T23:54:08.702Z,70.92
2023-02-08T23:56:35.180Z,71.25
2023-02-08T23:59:01.475Z,72.10
